This is the latest recevied weather packets stored in our database for station/object IW5EIJ-10. If no packets are shown the sender has not sent any weather packets the latest 10 day(s).
| Time | Temp. | Humidity | Pressure | Rain* | Wind** | Luminosity | Snow |
|---|---|---|---|---|---|---|---|
| 1777435586 | 15.56° C | 48% | 1012.7 hPa | - | - | - | - |
| 1777434386 | 15.56° C | 48% | 1012.8 hPa | - | - | - | - |
| 1777433186 | 15.56° C | 47% | 1012.9 hPa | - | - | - | - |
| 1777431986 | 16.67° C | 45% | 1012.9 hPa | - | - | - | - |
| 1777430785 | 16.67° C | 45% | 1012.8 hPa | - | - | - | - |
| 1777429590 | 16.11° C | 46% | 1012.7 hPa | - | - | - | - |
| 1777428381 | 16.67° C | 45% | 1012.7 hPa | - | - | - | - |
| 1777427179 | 16.67° C | 44% | 1012.6 hPa | - | - | - | - |
| 1777425979 | 17.22° C | 44% | 1012.6 hPa | - | - | - | - |
| 1777424779 | 16.67° C | 45% | 1012.7 hPa | - | - | - | - |
| 1777423579 | 16.67° C | 45% | 1012.6 hPa | - | - | - | - |
| 1777422379 | 16.67° C | 44% | 1012.7 hPa | - | - | - | - |
| 1777421179 | 17.22° C | 44% | 1012.8 hPa | - | - | - | - |
| 1777419979 | 17.22° C | 43% | 1012.7 hPa | - | - | - | - |
| 1777418779 | 17.22° C | 44% | 1012.7 hPa | - | - | - | - |
| 1777417579 | 17.22° C | 42% | 1012.8 hPa | - | - | - | - |
| 1777416397 | 16.67° C | 44% | 1012.9 hPa | - | - | - | - |
| 1777415178 | 17.78° C | 41% | 1012.8 hPa | - | - | - | - |
| 1777413986 | 17.78° C | 41% | 1012.9 hPa | - | - | - | - |
| 1777412778 | 17.78° C | 41% | 1013 hPa | - | - | - | - |
| 1777411578 | 18.33° C | 40% | 1013 hPa | - | - | - | - |
| 1777410378 | 18.33° C | 40% | 1012.9 hPa | - | - | - | - |
| 1777409178 | 18.89° C | 39% | 1012.9 hPa | - | - | - | - |
| 1777407978 | 18.89° C | 40% | 1013 hPa | - | - | - | - |
| 1777406777 | 18.89° C | 40% | 1012.8 hPa | - | - | - | - |
* Rain since midnight (hover to see other rain measurements)
** Current wind speed in m/s (hover to see current wind gust speed)